createdAt,value
2017-07-18T00:00:02.948Z,18.13
2017-07-18T00:00:07.216Z,18.13
2017-07-18T00:00:11.573Z,18.1
2017-07-18T00:00:15.813Z,18.1
2017-07-18T00:00:20.165Z,18.14
2017-07-18T00:00:24.652Z,18.16
2017-07-18T00:00:29.015Z,18.11
2017-07-18T00:00:33.248Z,18.09
2017-07-18T00:00:37.708Z,18.16
2017-07-18T00:00:42.098Z,18.1
2017-07-18T00:00:46.334Z,18.05
2017-07-18T00:00:50.563Z,18.1
2017-07-18T00:00:55.019Z,18.09
2017-07-18T00:00:59.347Z,18.04
2017-07-18T00:01:03.810Z,18.05
2017-07-18T00:01:08.154Z,18.05
2017-07-18T00:01:12.494Z,18.13
2017-07-18T00:01:16.604Z,18.1
2017-07-18T00:01:20.949Z,18.1
2017-07-18T00:01:25.303Z,18.16
2017-07-18T00:01:29.765Z,18.11
2017-07-18T00:01:34.112Z,18.11
2017-07-18T00:01:38.561Z,18.13
2017-07-18T00:01:42.910Z,18.11
2017-07-18T00:01:47.257Z,18.05
2017-07-18T00:01:51.606Z,18.09
2017-07-18T00:01:56.072Z,18.09
2017-07-18T00:02:00.555Z,18.07
2017-07-18T00:02:04.901Z,18.14
2017-07-18T00:02:09.264Z,18.01
2017-07-18T00:02:13.759Z,18.07
2017-07-18T00:02:18.117Z,18.09
2017-07-18T00:02:22.601Z,17.99
2017-07-18T00:02:27.089Z,17.99
2017-07-18T00:02:31.317Z,18.07
2017-07-18T00:02:35.687Z,17.99
2017-07-18T00:02:40.166Z,18.01
2017-07-18T00:02:44.540Z,17.96
2017-07-18T00:02:49.008Z,17.99
2017-07-18T00:02:53.359Z,17.99
2017-07-18T00:02:57.822Z,17.99
2017-07-18T00:03:01.999Z,17.96
2017-07-18T00:03:06.344Z,17.99
2017-07-18T00:03:10.721Z,18.1
2017-07-18T00:03:15.062Z,17.98
2017-07-18T00:03:19.392Z,17.95
2017-07-18T00:03:23.869Z,17.99
2017-07-18T00:03:28.323Z,18.04
2017-07-18T00:03:32.673Z,17.99
2017-07-18T00:03:37.159Z,17.91
2017-07-18T00:03:41.630Z,17.98
2017-07-18T00:03:46.082Z,18.02
2017-07-18T00:03:50.404Z,17.96
2017-07-18T00:03:54.872Z,17.94
2017-07-18T00:03:59.336Z,17.95
2017-07-18T00:04:04.047Z,18.01
2017-07-18T00:04:08.524Z,17.96
2017-07-18T00:04:12.901Z,17.95
2017-07-18T00:04:17.148Z,18.05
2017-07-18T00:04:21.635Z,18.05
2017-07-18T00:04:26.109Z,17.95
2017-07-18T00:04:30.585Z,18.02
2017-07-18T00:04:35.061Z,18.02
2017-07-18T00:04:39.561Z,17.99
2017-07-18T00:04:44.059Z,18.04
2017-07-18T00:04:48.531Z,18.04
2017-07-18T00:04:53.004Z,17.99
2017-07-18T00:04:57.487Z,18.04
2017-07-18T00:05:02.012Z,18.01
2017-07-18T00:05:06.484Z,17.96
2017-07-18T00:05:10.708Z,18.05
2017-07-18T00:05:15.069Z,17.99
2017-07-18T00:05:19.412Z,17.99
2017-07-18T00:05:23.755Z,17.99
2017-07-18T00:05:28.231Z,18.01
2017-07-18T00:05:32.708Z,17.95
2017-07-18T00:05:37.161Z,17.98
2017-07-18T00:05:41.627Z,17.95
2017-07-18T00:05:46.084Z,17.98
2017-07-18T00:05:50.456Z,18.01
2017-07-18T00:05:54.793Z,18.01
2017-07-18T00:05:59.171Z,17.96
2017-07-18T00:06:03.665Z,17.96
2017-07-18T00:06:08.014Z,18.02
2017-07-18T00:06:12.379Z,17.96
2017-07-18T00:06:16.732Z,17.98
2017-07-18T00:06:21.214Z,17.95
2017-07-18T00:06:25.679Z,17.98
2017-07-18T00:06:30.189Z,17.99
2017-07-18T00:06:34.533Z,17.99
2017-07-18T00:06:39.022Z,17.98
2017-07-18T00:06:43.511Z,17.96
2017-07-18T00:06:48.003Z,17.95
2017-07-18T00:06:52.350Z,17.98
2017-07-18T00:06:56.811Z,17.95
2017-07-18T00:07:01.274Z,17.94
2017-07-18T00:07:05.626Z,17.98
2017-07-18T00:07:10.101Z,17.94
2017-07-18T00:07:14.454Z,17.98
2017-07-18T00:07:18.795Z,17.98
2017-07-18T00:07:23.061Z,17.95
2017-07-18T00:07:27.538Z,17.96
2017-07-18T00:07:32.312Z,17.92
2017-07-18T00:07:36.798Z,17.98
2017-07-18T00:07:41.267Z,17.98
2017-07-18T00:07:45.743Z,17.92
2017-07-18T00:07:50.231Z,18.01
2017-07-18T00:07:54.579Z,17.96
2017-07-18T00:07:59.047Z,17.95
2017-07-18T00:08:03.548Z,17.92
2017-07-18T00:08:08.025Z,17.95
2017-07-18T00:08:12.496Z,17.92
2017-07-18T00:08:16.981Z,17.96
2017-07-18T00:08:21.355Z,17.94
2017-07-18T00:08:25.606Z,17.96
2017-07-18T00:08:29.959Z,17.87
2017-07-18T00:08:34.338Z,17.95
2017-07-18T00:08:38.842Z,17.98
2017-07-18T00:08:43.389Z,17.96
2017-07-18T00:08:47.899Z,17.91
2017-07-18T00:08:52.374Z,17.92
2017-07-18T00:08:56.833Z,17.96
2017-07-18T00:09:01.182Z,17.91
2017-07-18T00:09:05.801Z,17.99
2017-07-18T00:09:10.258Z,17.92
2017-07-18T00:09:14.608Z,17.96
2017-07-18T00:09:19.083Z,17.95
2017-07-18T00:09:23.540Z,17.92
2017-07-18T00:09:27.914Z,17.92
2017-07-18T00:09:32.382Z,17.87
2017-07-18T00:09:36.859Z,17.95
2017-07-18T00:09:41.309Z,17.91
2017-07-18T00:09:45.771Z,17.96
2017-07-18T00:09:50.251Z,17.89
2017-07-18T00:09:54.472Z,17.91
2017-07-18T00:09:58.818Z,17.95
2017-07-18T00:10:03.463Z,17.96
2017-07-18T00:10:07.824Z,17.96
2017-07-18T00:10:12.310Z,17.92
2017-07-18T00:10:16.670Z,17.95
2017-07-18T00:10:21.063Z,17.94
2017-07-18T00:10:25.424Z,17.86
2017-07-18T00:10:29.920Z,17.91
2017-07-18T00:10:34.266Z,17.91
2017-07-18T00:10:38.724Z,17.92
2017-07-18T00:10:43.217Z,17.94
2017-07-18T00:10:47.698Z,17.94
2017-07-18T00:10:52.063Z,17.94
2017-07-18T00:10:56.190Z,17.91
2017-07-18T00:11:00.538Z,17.95
2017-07-18T00:11:05.097Z,17.95
2017-07-18T00:11:09.574Z,17.94
2017-07-18T00:11:14.050Z,17.92
2017-07-18T00:11:18.411Z,17.92
2017-07-18T00:11:22.766Z,17.92
2017-07-18T00:11:27.238Z,17.86
2017-07-18T00:11:31.574Z,17.96
2017-07-18T00:11:35.936Z,17.86
2017-07-18T00:11:40.423Z,17.94
2017-07-18T00:11:44.757Z,17.91
2017-07-18T00:11:49.212Z,17.92
2017-07-18T00:11:53.572Z,17.91
2017-07-18T00:11:58.038Z,17.96
2017-07-18T00:12:02.274Z,17.92
2017-07-18T00:12:06.510Z,17.92
2017-07-18T00:12:10.897Z,17.95
2017-07-18T00:12:15.119Z,17.94
2017-07-18T00:12:19.597Z,17.94
2017-07-18T00:12:23.954Z,17.86
2017-07-18T00:12:28.434Z,17.91
2017-07-18T00:12:32.678Z,17.91
2017-07-18T00:12:37.030Z,17.95
2017-07-18T00:12:41.512Z,17.92
2017-07-18T00:12:45.755Z,17.91
2017-07-18T00:12:50.230Z,17.91
2017-07-18T00:12:54.707Z,17.94
2017-07-18T00:12:59.169Z,17.89
2017-07-18T00:13:03.699Z,17.94
2017-07-18T00:13:08.170Z,17.92
2017-07-18T00:13:12.510Z,17.92
2017-07-18T00:13:16.863Z,17.96
2017-07-18T00:13:21.213Z,17.92
2017-07-18T00:13:25.557Z,17.98
2017-07-18T00:13:30.004Z,17.91
2017-07-18T00:13:34.489Z,17.94
2017-07-18T00:13:38.936Z,17.92
2017-07-18T00:13:43.394Z,17.91
2017-07-18T00:13:47.787Z,17.86
2017-07-18T00:13:52.244Z,17.94
2017-07-18T00:13:56.719Z,17.87
2017-07-18T00:14:00.850Z,17.91
2017-07-18T00:14:05.551Z,17.92
2017-07-18T00:14:10.011Z,17.94
2017-07-18T00:14:14.254Z,17.91
2017-07-18T00:14:18.735Z,17.94
2017-07-18T00:14:22.967Z,17.92
2017-07-18T00:14:27.443Z,17.92
2017-07-18T00:14:31.816Z,17.92
2017-07-18T00:14:36.177Z,17.91
2017-07-18T00:14:40.542Z,17.91
2017-07-18T00:14:44.788Z,17.92
2017-07-18T00:14:49.261Z,17.91
2017-07-18T00:14:53.603Z,17.94
2017-07-18T00:14:58.090Z,17.96
2017-07-18T00:15:02.426Z,17.89
2017-07-18T00:15:06.891Z,17.91
2017-07-18T00:15:11.355Z,17.94
2017-07-18T00:15:15.706Z,17.94
2017-07-18T00:15:19.923Z,17.92
2017-07-18T00:15:24.267Z,17.95
2017-07-18T00:15:28.627Z,17.96
2017-07-18T00:15:33.092Z,17.95
2017-07-18T00:15:37.445Z,17.96
2017-07-18T00:15:41.908Z,17.96
2017-07-18T00:15:46.244Z,18.01
2017-07-18T00:15:50.723Z,17.99
2017-07-18T00:15:55.193Z,17.92
2017-07-18T00:15:59.645Z,17.92
2017-07-18T00:16:04.013Z,17.89
2017-07-18T00:16:08.504Z,17.98
2017-07-18T00:16:12.996Z,17.96
2017-07-18T00:16:17.381Z,17.98
2017-07-18T00:16:21.749Z,17.92
2017-07-18T00:16:26.104Z,17.98
2017-07-18T00:16:30.491Z,17.91
2017-07-18T00:16:34.731Z,18.02
2017-07-18T00:16:39.223Z,17.98
2017-07-18T00:16:43.716Z,17.94
2017-07-18T00:16:48.197Z,17.95
2017-07-18T00:16:52.659Z,17.96
2017-07-18T00:16:57.125Z,18.02
2017-07-18T00:17:01.615Z,18.02
2017-07-18T00:17:05.903Z,17.95
2017-07-18T00:17:10.242Z,17.94
2017-07-18T00:17:14.603Z,17.92
2017-07-18T00:17:18.839Z,17.98
2017-07-18T00:17:23.288Z,17.99
2017-07-18T00:17:27.661Z,17.98
2017-07-18T00:17:31.889Z,18.05
2017-07-18T00:17:36.245Z,18.01
2017-07-18T00:17:40.696Z,17.96
2017-07-18T00:17:45.154Z,17.99
2017-07-18T00:17:49.625Z,18.04
2017-07-18T00:17:54.090Z,17.96
2017-07-18T00:17:58.445Z,18.02
2017-07-18T00:18:03.107Z,18.01
2017-07-18T00:18:07.460Z,17.98
2017-07-18T00:18:11.842Z,18.02
2017-07-18T00:18:16.307Z,17.98
2017-07-18T00:18:20.676Z,17.99
2017-07-18T00:18:24.951Z,17.96
2017-07-18T00:18:29.331Z,18.01
2017-07-18T00:18:33.806Z,18.02
2017-07-18T00:18:38.303Z,18.02
2017-07-18T00:18:42.765Z,18.04
2017-07-18T00:18:47.234Z,18.07
2017-07-18T00:18:51.591Z,18.04
2017-07-18T00:18:56.060Z,17.99
2017-07-18T00:19:00.522Z,17.99
2017-07-18T00:19:05.076Z,18.02
2017-07-18T00:19:09.412Z,18.01
2017-07-18T00:19:13.863Z,17.95
2017-07-18T00:19:18.199Z,17.99
2017-07-18T00:19:22.571Z,18.04
2017-07-18T00:19:26.804Z,18.01
2017-07-18T00:19:31.258Z,18.02
2017-07-18T00:19:35.502Z,17.92
2017-07-18T00:19:39.985Z,17.95
2017-07-18T00:19:44.447Z,18.04
2017-07-18T00:19:48.697Z,17.98
2017-07-18T00:19:53.148Z,17.92
2017-07-18T00:19:57.473Z,17.98
2017-07-18T00:20:01.924Z,18.02
2017-07-18T00:20:06.275Z,18.04
2017-07-18T00:20:10.629Z,17.92
2017-07-18T00:20:15.101Z,18.04
2017-07-18T00:20:19.582Z,18.02
2017-07-18T00:20:24.070Z,17.99
2017-07-18T00:20:28.572Z,17.98
2017-07-18T00:20:33.034Z,17.98
2017-07-18T00:20:37.504Z,17.92
2017-07-18T00:20:41.978Z,17.96
2017-07-18T00:20:46.332Z,18.04
2017-07-18T00:20:50.567Z,18.04
2017-07-18T00:20:55.043Z,18.01
2017-07-18T00:20:59.397Z,17.99
2017-07-18T00:21:04.006Z,18.02
2017-07-18T00:21:08.352Z,17.99
2017-07-18T00:21:12.821Z,17.95
2017-07-18T00:21:17.282Z,17.98
2017-07-18T00:21:21.395Z,17.98
2017-07-18T00:21:25.739Z,17.99
2017-07-18T00:21:30.200Z,17.99
2017-07-18T00:21:34.556Z,17.96
2017-07-18T00:21:38.912Z,18.02
2017-07-18T00:21:43.399Z,18.02
2017-07-18T00:21:47.743Z,17.99
2017-07-18T00:21:52.084Z,17.99
2017-07-18T00:21:56.533Z,17.95
2017-07-18T00:22:00.765Z,18.01
2017-07-18T00:22:05.386Z,18.01
2017-07-18T00:22:09.769Z,18.01
2017-07-18T00:22:14.247Z,17.96
2017-07-18T00:22:18.502Z,17.99
2017-07-18T00:22:22.995Z,17.99
2017-07-18T00:22:27.350Z,17.99
2017-07-18T00:22:31.717Z,17.96
2017-07-18T00:22:36.187Z,17.96
2017-07-18T00:22:40.408Z,17.98
2017-07-18T00:22:44.897Z,18.01
2017-07-18T00:22:49.372Z,18.01
2017-07-18T00:22:53.713Z,17.99
2017-07-18T00:22:58.179Z,17.95
2017-07-18T00:23:02.630Z,18.01
2017-07-18T00:23:07.105Z,17.96
2017-07-18T00:23:11.551Z,17.99
2017-07-18T00:23:15.792Z,17.99
2017-07-18T00:23:20.011Z,17.99
2017-07-18T00:23:24.358Z,17.94
2017-07-18T00:23:28.706Z,17.94
2017-07-18T00:23:33.187Z,17.98
2017-07-18T00:23:37.654Z,18.02
2017-07-18T00:23:42.010Z,17.98
2017-07-18T00:23:46.355Z,18.01
2017-07-18T00:23:50.696Z,17.95
2017-07-18T00:23:55.170Z,17.91
2017-07-18T00:23:59.651Z,17.94
2017-07-18T00:24:04.528Z,17.95
2017-07-18T00:24:09.010Z,17.98
2017-07-18T00:24:13.274Z,17.95
2017-07-18T00:24:17.406Z,17.92
2017-07-18T00:24:21.409Z,17.95
2017-07-18T00:24:25.869Z,17.95
2017-07-18T00:24:30.233Z,17.91
2017-07-18T00:24:34.602Z,17.95
2017-07-18T00:24:39.056Z,17.94
2017-07-18T00:24:43.545Z,17.94
2017-07-18T00:24:48.017Z,17.89
2017-07-18T00:24:52.485Z,17.95
2017-07-18T00:24:56.827Z,17.92
2017-07-18T00:25:01.176Z,17.95
2017-07-18T00:25:05.520Z,17.96
2017-07-18T00:25:10.044Z,17.95
2017-07-18T00:25:14.288Z,17.94
2017-07-18T00:25:18.756Z,17.92
2017-07-18T00:25:23.134Z,17.94
2017-07-18T00:25:27.598Z,17.94
2017-07-18T00:25:32.048Z,17.95
2017-07-18T00:25:36.510Z,17.92
2017-07-18T00:25:40.978Z,17.94
2017-07-18T00:25:45.445Z,17.91
2017-07-18T00:25:49.779Z,17.94
2017-07-18T00:25:54.260Z,17.94
2017-07-18T00:25:58.723Z,17.94
2017-07-18T00:26:03.576Z,17.91
2017-07-18T00:26:07.819Z,17.86
2017-07-18T00:26:12.179Z,17.95
2017-07-18T00:26:16.657Z,17.96
2017-07-18T00:26:20.900Z,17.92
2017-07-18T00:26:25.262Z,17.91
2017-07-18T00:26:29.366Z,17.96
2017-07-18T00:26:33.839Z,17.95
2017-07-18T00:26:38.368Z,17.94
2017-07-18T00:26:42.841Z,17.95
2017-07-18T00:26:47.333Z,17.91
2017-07-18T00:26:51.803Z,17.83
2017-07-18T00:26:56.144Z,17.94
2017-07-18T00:27:00.591Z,17.89
2017-07-18T00:27:05.061Z,17.92
2017-07-18T00:27:09.402Z,17.91
2017-07-18T00:27:13.734Z,17.92
2017-07-18T00:27:18.090Z,17.95
2017-07-18T00:27:22.449Z,17.95
2017-07-18T00:27:26.897Z,17.92
2017-07-18T00:27:31.245Z,17.86
2017-07-18T00:27:35.645Z,17.92
2017-07-18T00:27:40.131Z,17.94
2017-07-18T00:27:44.490Z,17.92
2017-07-18T00:27:48.846Z,17.94
2017-07-18T00:27:53.302Z,17.95
2017-07-18T00:27:57.629Z,17.96
2017-07-18T00:28:02.188Z,17.91
2017-07-18T00:28:06.539Z,17.92
2017-07-18T00:28:10.914Z,17.95
2017-07-18T00:28:15.162Z,17.91
2017-07-18T00:28:19.416Z,17.83
2017-07-18T00:28:23.780Z,17.96
2017-07-18T00:28:28.264Z,17.92
2017-07-18T00:28:32.626Z,17.92
2017-07-18T00:28:36.865Z,17.96
2017-07-18T00:28:41.329Z,17.95
2017-07-18T00:28:45.829Z,17.91
2017-07-18T00:28:50.085Z,17.94
2017-07-18T00:28:54.422Z,17.91
2017-07-18T00:28:58.887Z,17.92
2017-07-18T00:29:03.283Z,17.89
2017-07-18T00:29:07.745Z,17.95
2017-07-18T00:29:12.208Z,17.94
2017-07-18T00:29:16.557Z,17.96
2017-07-18T00:29:20.674Z,17.92
2017-07-18T00:29:25.140Z,17.96
2017-07-18T00:29:29.489Z,17.98
2017-07-18T00:29:33.818Z,17.95
2017-07-18T00:29:38.273Z,17.95
2017-07-18T00:29:42.596Z,17.95
2017-07-18T00:29:47.083Z,17.92
2017-07-18T00:29:51.543Z,17.94
2017-07-18T00:29:56.020Z,17.91
2017-07-18T00:30:00.478Z,17.96
2017-07-18T00:30:05.027Z,17.91
2017-07-18T00:30:09.520Z,17.91
2017-07-18T00:30:13.875Z,17.95
2017-07-18T00:30:18.121Z,17.87
2017-07-18T00:30:22.375Z,17.92
2017-07-18T00:30:26.850Z,17.94
2017-07-18T00:30:31.099Z,17.89
2017-07-18T00:30:35.566Z,17.89
2017-07-18T00:30:40.062Z,17.99
2017-07-18T00:30:44.535Z,17.91
2017-07-18T00:30:48.893Z,17.96
2017-07-18T00:30:53.392Z,17.98
2017-07-18T00:30:57.845Z,17.98
2017-07-18T00:31:02.191Z,17.95
2017-07-18T00:31:06.529Z,17.95
2017-07-18T00:31:10.983Z,17.92
2017-07-18T00:31:15.224Z,17.95
2017-07-18T00:31:19.580Z,17.91
2017-07-18T00:31:23.913Z,17.95
2017-07-18T00:31:28.142Z,17.92
2017-07-18T00:31:32.599Z,17.91
2017-07-18T00:31:37.069Z,17.91
2017-07-18T00:31:41.538Z,17.95
2017-07-18T00:31:46.005Z,17.98
2017-07-18T00:31:50.361Z,17.92
2017-07-18T00:31:54.827Z,17.95
2017-07-18T00:31:59.171Z,17.92
2017-07-18T00:32:03.644Z,17.86
2017-07-18T00:32:08.004Z,17.98
2017-07-18T00:32:12.351Z,17.95
2017-07-18T00:32:16.865Z,17.92
2017-07-18T00:32:21.110Z,17.92
2017-07-18T00:32:25.576Z,17.91
2017-07-18T00:32:30.044Z,17.95
2017-07-18T00:32:34.604Z,17.96
2017-07-18T00:32:39.082Z,17.99
2017-07-18T00:32:43.447Z,17.94
2017-07-18T00:32:47.948Z,17.86
2017-07-18T00:32:52.298Z,17.89
2017-07-18T00:32:56.545Z,17.84
2017-07-18T00:33:00.911Z,17.89
2017-07-18T00:33:05.363Z,17.92
2017-07-18T00:33:09.810Z,17.86
2017-07-18T00:33:14.183Z,17.96
2017-07-18T00:33:18.400Z,17.91
2017-07-18T00:33:22.751Z,17.94
2017-07-18T00:33:27.243Z,17.92
2017-07-18T00:33:31.700Z,17.92
2017-07-18T00:33:36.053Z,17.94
2017-07-18T00:33:40.387Z,17.92
2017-07-18T00:33:44.852Z,17.89
2017-07-18T00:33:49.184Z,17.92
2017-07-18T00:33:53.419Z,17.95
2017-07-18T00:33:57.879Z,17.94
2017-07-18T00:34:02.323Z,17.92
2017-07-18T00:34:06.679Z,17.91
2017-07-18T00:34:10.947Z,17.96
2017-07-18T00:34:15.294Z,17.91
2017-07-18T00:34:19.671Z,17.95
2017-07-18T00:34:23.811Z,17.94
2017-07-18T00:34:28.289Z,17.95
2017-07-18T00:34:32.637Z,17.99
2017-07-18T00:34:36.999Z,17.96
2017-07-18T00:34:41.361Z,17.98
2017-07-18T00:34:45.840Z,17.95
2017-07-18T00:34:50.101Z,17.89
2017-07-18T00:34:54.335Z,17.98
2017-07-18T00:34:58.672Z,17.95
2017-07-18T00:35:03.021Z,17.95
2017-07-18T00:35:07.511Z,17.92
2017-07-18T00:35:11.859Z,17.92
2017-07-18T00:35:16.320Z,17.94
2017-07-18T00:35:20.769Z,17.89
2017-07-18T00:35:25.121Z,17.96
2017-07-18T00:35:29.353Z,17.91
2017-07-18T00:35:33.685Z,17.95
2017-07-18T00:35:38.155Z,18.02
2017-07-18T00:35:42.516Z,17.95
2017-07-18T00:35:46.988Z,17.96
2017-07-18T00:35:51.090Z,17.95
2017-07-18T00:35:55.575Z,17.99
2017-07-18T00:35:59.812Z,17.99
2017-07-18T00:36:04.300Z,17.99
2017-07-18T00:36:08.798Z,18.02
2017-07-18T00:36:13.261Z,17.96
2017-07-18T00:36:17.593Z,17.98
2017-07-18T00:36:22.097Z,18.04
2017-07-18T00:36:26.451Z,17.98
2017-07-18T00:36:30.815Z,17.99
2017-07-18T00:36:35.155Z,17.99
2017-07-18T00:36:39.506Z,17.99
2017-07-18T00:36:43.966Z,17.95
2017-07-18T00:36:48.318Z,17.99
2017-07-18T00:36:52.561Z,17.99
2017-07-18T00:36:57.028Z,17.95
2017-07-18T00:37:01.376Z,17.99
2017-07-18T00:37:05.852Z,17.95
2017-07-18T00:37:10.323Z,18.04
2017-07-18T00:37:14.791Z,17.98
2017-07-18T00:37:19.147Z,18.02
2017-07-18T00:37:23.252Z,17.96
2017-07-18T00:37:27.726Z,17.99
2017-07-18T00:37:32.079Z,17.99
2017-07-18T00:37:36.556Z,17.95
2017-07-18T00:37:41.193Z,17.99
2017-07-18T00:37:45.452Z,18.04
2017-07-18T00:37:49.818Z,18.01
2017-07-18T00:37:54.274Z,18.01
2017-07-18T00:37:58.747Z,17.99
2017-07-18T00:38:03.237Z,17.99
2017-07-18T00:38:07.599Z,18.13
2017-07-18T00:38:11.966Z,17.96
2017-07-18T00:38:16.216Z,18.11
2017-07-18T00:38:20.682Z,18.09
2017-07-18T00:38:25.034Z,18.02
2017-07-18T00:38:29.546Z,18.04
2017-07-18T00:38:34.020Z,18.09
2017-07-18T00:38:38.360Z,18.1
2017-07-18T00:38:42.846Z,17.98
2017-07-18T00:38:47.092Z,18.11
2017-07-18T00:38:51.457Z,18.1
2017-07-18T00:38:55.797Z,18.09
2017-07-18T00:39:00.164Z,18.07
2017-07-18T00:39:04.630Z,18.09
2017-07-18T00:39:09.087Z,18.09
2017-07-18T00:39:13.434Z,18.14
2017-07-18T00:39:17.779Z,18.09
2017-07-18T00:39:21.898Z,18.09
2017-07-18T00:39:26.247Z,18.09
2017-07-18T00:39:30.718Z,18.09
2017-07-18T00:39:35.065Z,18.05
2017-07-18T00:39:39.520Z,18.09
2017-07-18T00:39:43.642Z,18.04
2017-07-18T00:39:47.866Z,18.13
2017-07-18T00:39:52.223Z,18.07
2017-07-18T00:39:56.688Z,18.11
2017-07-18T00:40:01.163Z,18.13
2017-07-18T00:40:05.643Z,18.07
2017-07-18T00:40:09.998Z,18.04
2017-07-18T00:40:14.467Z,18.09
2017-07-18T00:40:18.951Z,18.07
2017-07-18T00:40:23.330Z,18.07
2017-07-18T00:40:27.694Z,18.09
2017-07-18T00:40:32.158Z,18.09
2017-07-18T00:40:36.631Z,18.1
2017-07-18T00:40:41.101Z,18.09
2017-07-18T00:40:45.588Z,18.05
2017-07-18T00:40:49.826Z,18.09
2017-07-18T00:40:54.306Z,18.09
2017-07-18T00:40:58.656Z,18.09
2017-07-18T00:41:03.283Z,18.1
2017-07-18T00:41:07.757Z,18.04
2017-07-18T00:41:12.207Z,17.96
2017-07-18T00:41:16.674Z,18.1
2017-07-18T00:41:20.939Z,18.09
2017-07-18T00:41:25.404Z,18.05
2017-07-18T00:41:29.750Z,18.07
2017-07-18T00:41:34.111Z,17.98
2017-07-18T00:41:38.565Z,18.14
2017-07-18T00:41:43.020Z,18.1
2017-07-18T00:41:47.242Z,18.09
2017-07-18T00:41:51.582Z,18.09
2017-07-18T00:41:56.039Z,18.11
2017-07-18T00:42:00.504Z,18.04
2017-07-18T00:42:05.285Z,18.07
2017-07-18T00:42:09.653Z,18.09
2017-07-18T00:42:14.123Z,18.1
2017-07-18T00:42:18.371Z,18.07
2017-07-18T00:42:22.604Z,18.05
2017-07-18T00:42:27.081Z,18.09
2017-07-18T00:42:31.451Z,18.1
2017-07-18T00:42:35.798Z,18.1
2017-07-18T00:42:40.281Z,18.05
2017-07-18T00:42:44.770Z,18.1
2017-07-18T00:42:49.029Z,18.09
2017-07-18T00:42:53.498Z,18.07
2017-07-18T00:42:57.981Z,18.09
2017-07-18T00:43:02.654Z,18.05
2017-07-18T00:43:07.119Z,18.11
2017-07-18T00:43:11.604Z,18.11
2017-07-18T00:43:16.068Z,18.13
2017-07-18T00:43:20.407Z,18.02
2017-07-18T00:43:24.871Z,17.98
2017-07-18T00:43:29.213Z,18.09
2017-07-18T00:43:33.574Z,18.07
2017-07-18T00:43:37.923Z,18.07
2017-07-18T00:43:42.406Z,18.11
2017-07-18T00:43:46.852Z,17.98
2017-07-18T00:43:51.193Z,18.09
2017-07-18T00:43:55.650Z,18.01
2017-07-18T00:44:00.123Z,17.99
2017-07-18T00:44:04.849Z,18.02
2017-07-18T00:44:09.246Z,17.98
2017-07-18T00:44:13.729Z,18.01
2017-07-18T00:44:17.989Z,18.09
2017-07-18T00:44:22.489Z,17.98
2017-07-18T00:44:26.717Z,18.09
2017-07-18T00:44:30.949Z,17.98
2017-07-18T00:44:35.447Z,17.99
2017-07-18T00:44:39.926Z,17.94
2017-07-18T00:44:44.297Z,17.95
2017-07-18T00:44:48.625Z,17.99
2017-07-18T00:44:53.109Z,17.99
2017-07-18T00:44:57.579Z,17.98
2017-07-18T00:45:02.037Z,18.05
2017-07-18T00:45:06.273Z,17.91
2017-07-18T00:45:10.752Z,17.99
2017-07-18T00:45:15.324Z,18.05
2017-07-18T00:45:19.672Z,17.99
2017-07-18T00:45:24.146Z,18.02
2017-07-18T00:45:28.381Z,18.01
2017-07-18T00:45:32.722Z,17.99
2017-07-18T00:45:37.053Z,18.01
2017-07-18T00:45:41.497Z,17.94
2017-07-18T00:45:45.830Z,18.02
2017-07-18T00:45:50.182Z,18.04
2017-07-18T00:45:54.540Z,18.01
2017-07-18T00:45:59.039Z,18.01
2017-07-18T00:46:03.421Z,18.01
2017-07-18T00:46:07.759Z,17.99
2017-07-18T00:46:12.234Z,17.95
2017-07-18T00:46:16.722Z,17.99
2017-07-18T00:46:21.097Z,18.04
2017-07-18T00:46:25.564Z,17.99
2017-07-18T00:46:29.911Z,17.95
2017-07-18T00:46:34.287Z,18.02
2017-07-18T00:46:38.764Z,18.01
2017-07-18T00:46:43.250Z,17.96
2017-07-18T00:46:47.747Z,18.01
2017-07-18T00:46:52.101Z,17.99
2017-07-18T00:46:56.553Z,17.95
2017-07-18T00:47:00.882Z,17.95
2017-07-18T00:47:05.352Z,17.99
2017-07-18T00:47:09.747Z,17.98
2017-07-18T00:47:14.076Z,18.02
2017-07-18T00:47:18.409Z,18.01
2017-07-18T00:47:22.680Z,18.01
2017-07-18T00:47:27.139Z,17.95
2017-07-18T00:47:31.615Z,17.95
2017-07-18T00:47:36.104Z,17.92
2017-07-18T00:47:40.559Z,17.96
2017-07-18T00:47:45.032Z,17.98
2017-07-18T00:47:49.516Z,17.95
2017-07-18T00:47:53.862Z,17.98
2017-07-18T00:47:58.320Z,17.95
2017-07-18T00:48:02.788Z,17.91
2017-07-18T00:48:07.155Z,17.98
2017-07-18T00:48:11.520Z,17.95
2017-07-18T00:48:15.750Z,18.02
2017-07-18T00:48:20.225Z,18.04
2017-07-18T00:48:24.602Z,18.02
2017-07-18T00:48:29.070Z,17.99
2017-07-18T00:48:33.443Z,17.94
2017-07-18T00:48:37.935Z,17.92
2017-07-18T00:48:42.428Z,17.91
2017-07-18T00:48:46.935Z,17.92
2017-07-18T00:48:51.288Z,17.98
2017-07-18T00:48:55.743Z,17.94
2017-07-18T00:49:00.228Z,17.98
2017-07-18T00:49:04.862Z,17.99
2017-07-18T00:49:09.313Z,17.98
2017-07-18T00:49:13.778Z,17.98
2017-07-18T00:49:18.119Z,17.95
2017-07-18T00:49:22.462Z,17.98
2017-07-18T00:49:26.926Z,17.95
2017-07-18T00:49:31.383Z,17.96
2017-07-18T00:49:35.721Z,17.94
2017-07-18T00:49:40.177Z,17.95
2017-07-18T00:49:44.634Z,17.94
2017-07-18T00:49:49.100Z,17.99
2017-07-18T00:49:53.559Z,17.87
2017-07-18T00:49:58.019Z,18.02
2017-07-18T00:50:02.517Z,17.94
2017-07-18T00:50:06.783Z,17.98
2017-07-18T00:50:11.265Z,17.92
2017-07-18T00:50:15.633Z,17.92
2017-07-18T00:50:19.976Z,17.95
2017-07-18T00:50:24.458Z,17.99
2017-07-18T00:50:28.929Z,17.98
2017-07-18T00:50:33.412Z,17.95
2017-07-18T00:50:37.659Z,17.96
2017-07-18T00:50:42.122Z,18.01
2017-07-18T00:50:46.607Z,17.92
2017-07-18T00:50:51.083Z,17.91
2017-07-18T00:50:55.430Z,17.92
2017-07-18T00:50:59.879Z,17.95
2017-07-18T00:51:04.342Z,17.92
2017-07-18T00:51:08.566Z,17.92
2017-07-18T00:51:13.070Z,17.94
2017-07-18T00:51:17.290Z,18.02
2017-07-18T00:51:21.756Z,17.94
2017-07-18T00:51:26.232Z,17.92
2017-07-18T00:51:30.460Z,17.98
2017-07-18T00:51:34.926Z,17.95
2017-07-18T00:51:39.395Z,17.95
2017-07-18T00:51:43.861Z,17.89
2017-07-18T00:51:48.094Z,17.99
2017-07-18T00:51:52.445Z,17.95
2017-07-18T00:51:56.690Z,17.92
2017-07-18T00:52:01.028Z,17.91
2017-07-18T00:52:05.447Z,17.95
2017-07-18T00:52:09.814Z,17.92
2017-07-18T00:52:14.295Z,17.91
2017-07-18T00:52:18.794Z,17.86
2017-07-18T00:52:23.286Z,17.98
2017-07-18T00:52:27.751Z,17.94
2017-07-18T00:52:31.983Z,17.95
2017-07-18T00:52:36.481Z,17.89
2017-07-18T00:52:40.963Z,17.95
2017-07-18T00:52:45.438Z,17.89
2017-07-18T00:52:49.932Z,17.86
2017-07-18T00:52:54.418Z,17.89
2017-07-18T00:52:58.865Z,17.91
2017-07-18T00:53:03.330Z,17.98
2017-07-18T00:53:07.462Z,17.92
2017-07-18T00:53:11.793Z,17.92
2017-07-18T00:53:16.134Z,17.94
2017-07-18T00:53:20.485Z,17.92
2017-07-18T00:53:24.943Z,17.89
2017-07-18T00:53:29.299Z,17.95
2017-07-18T00:53:33.760Z,17.95
2017-07-18T00:53:38.135Z,17.92
2017-07-18T00:53:42.599Z,17.96
2017-07-18T00:53:47.075Z,17.84
2017-07-18T00:53:51.544Z,17.89
2017-07-18T00:53:55.887Z,17.95
2017-07-18T00:54:00.119Z,17.98
2017-07-18T00:54:04.987Z,17.91
2017-07-18T00:54:09.344Z,17.92
2017-07-18T00:54:13.586Z,17.94
2017-07-18T00:54:17.960Z,17.92
2017-07-18T00:54:22.336Z,17.92
2017-07-18T00:54:26.692Z,17.92
2017-07-18T00:54:31.171Z,17.94
2017-07-18T00:54:35.650Z,17.94
2017-07-18T00:54:39.990Z,17.95
2017-07-18T00:54:44.496Z,17.96
2017-07-18T00:54:48.849Z,17.94
2017-07-18T00:54:53.322Z,17.92
2017-07-18T00:54:57.548Z,17.89
2017-07-18T00:55:02.022Z,17.92
2017-07-18T00:55:06.378Z,17.89
2017-07-18T00:55:10.863Z,17.84
2017-07-18T00:55:15.223Z,17.98
2017-07-18T00:55:19.450Z,17.92
2017-07-18T00:55:23.786Z,17.95
2017-07-18T00:55:28.010Z,17.95
2017-07-18T00:55:32.368Z,17.92
2017-07-18T00:55:36.823Z,17.95
2017-07-18T00:55:41.062Z,17.86
2017-07-18T00:55:45.528Z,17.92
2017-07-18T00:55:49.985Z,17.96
2017-07-18T00:55:54.452Z,17.92
2017-07-18T00:55:58.915Z,17.95
2017-07-18T00:56:03.606Z,17.94
2017-07-18T00:56:07.846Z,17.94
2017-07-18T00:56:12.338Z,17.95
2017-07-18T00:56:16.696Z,17.92
2017-07-18T00:56:21.075Z,17.96
2017-07-18T00:56:25.547Z,17.96
2017-07-18T00:56:29.909Z,17.95
2017-07-18T00:56:34.386Z,17.91
2017-07-18T00:56:38.876Z,17.87
2017-07-18T00:56:43.128Z,17.95
2017-07-18T00:56:47.601Z,17.98